Time;durP1;ratioP1;P1;durP2;ratioP2;P2;SDS_P1;SDS_P2;PMS_P1;PMS_P2;Temp;Humidity;BMP_temperature;BMP_pressure;BME280_temperature;BME280_humidity;BME280_pressure;Samples;Min_cycle;Max_cycle;Signal;HPM_P1;HPM_P2
2021/04/24 00:00:37;;;;;;;9.20;5.30;;;3.60;99.90;;;;;;5062094;28;20585;-80
2021/04/24 00:03:03;;;;;;;8.43;5.30;;;3.70;99.90;;;;;;5059986;28;20555;-80
2021/04/24 00:05:43;;;;;;;10.23;5.80;;;3.60;99.90;;;;;;5059224;28;20185;-80
2021/04/24 00:08:11;;;;;;;8.87;5.20;;;3.50;99.90;;;;;;5058883;28;20412;-80
2021/04/24 00:10:39;;;;;;;9.50;5.17;;;3.50;99.90;;;;;;5058040;28;20426;-80
2021/04/24 00:13:06;;;;;;;10.63;5.17;;;3.40;99.90;;;;;;5058681;28;20482;-80
2021/04/24 00:15:33;;;;;;;7.53;4.07;;;3.40;99.90;;;;;;5059748;28;20404;-80
2021/04/24 00:17:58;;;;;;;7.73;4.80;;;3.30;99.90;;;;;;5070054;28;20404;-80
2021/04/24 00:20:24;;;;;;;12.03;5.20;;;3.30;99.90;;;;;;5081299;28;20450;-80
2021/04/24 00:22:51;;;;;;;13.33;4.90;;;3.20;99.90;;;;;;5082226;28;20165;-79
2021/04/24 00:25:18;;;;;;;8.67;4.97;;;3.20;99.90;;;;;;5072322;28;20519;-80
2021/04/24 00:27:44;;;;;;;11.17;5.60;;;3.20;99.90;;;;;;5066704;28;20416;-81
2021/04/24 00:30:11;;;;;;;9.07;4.80;;;3.20;99.90;;;;;;5067863;28;20492;-81
2021/04/24 00:32:38;;;;;;;8.17;4.63;;;3.10;99.90;;;;;;5067529;28;20463;-81
2021/04/24 00:35:05;;;;;;;8.17;4.67;;;3.10;99.90;;;;;;5068411;28;20810;-81
2021/04/24 00:37:31;;;;;;;6.87;4.57;;;3.00;99.90;;;;;;5066662;28;20412;-81
2021/04/24 00:39:56;;;;;;;5.60;4.37;;;2.90;99.90;;;;;;5067371;28;20485;-81
2021/04/24 00:42:22;;;;;;;10.67;5.00;;;3.60;99.90;;;;;;5071250;28;20188;-80
2021/04/24 00:44:50;;;;;;;8.23;4.37;;;2.70;99.90;;;;;;5066611;28;20581;-81
2021/04/24 00:47:18;;;;;;;11.93;4.67;;;2.90;99.90;;;;;;5063608;28;20181;-81
2021/04/24 00:49:43;;;;;;;7.67;4.63;;;2.80;99.90;;;;;;5065983;28;20450;-81
2021/04/24 00:52:09;;;;;;;10.70;5.47;;;2.70;99.90;;;;;;5063808;28;21001;-81
2021/04/24 00:54:35;;;;;;;7.20;4.50;;;2.70;99.90;;;;;;5066279;28;20161;-80
2021/04/24 00:57:01;;;;;;;10.73;5.50;;;2.60;99.90;;;;;;5066595;28;20169;-81
2021/04/24 00:59:28;;;;;;;8.57;5.30;;;2.60;99.90;;;;;;5066421;28;20193;-81
2021/04/24 01:01:54;;;;;;;12.20;5.23;;;2.60;99.90;;;;;;5065546;28;20443;-81
2021/04/24 01:04:21;;;;;;;10.70;5.60;;;2.90;99.90;;;;;;5063765;28;20482;-81
2021/04/24 01:06:46;;;;;;;9.30;5.00;;;2.50;99.90;;;;;;5065232;28;20182;-81
2021/04/24 01:09:12;;;;;;;7.57;4.10;;;2.40;99.90;;;;;;5064809;28;20879;-81
2021/04/24 01:11:38;;;;;;;8.13;5.23;;;2.40;99.90;;;;;;5064750;28;20209;-81
2021/04/24 01:14:04;;;;;;;10.43;4.97;;;2.80;99.90;;;;;;5064951;28;20184;-80
2021/04/24 01:16:29;;;;;;;10.47;5.27;;;2.40;99.90;;;;;;5065963;28;20174;-80
2021/04/24 01:18:55;;;;;;;10.50;5.53;;;2.40;99.90;;;;;;5064313;28;20194;-80
2021/04/24 01:21:23;;;;;;;8.70;4.33;;;2.40;99.90;;;;;;5063642;28;20185;-81
2021/04/24 01:23:50;;;;;;;6.30;4.23;;;2.20;99.90;;;;;;5062871;28;20231;-80
2021/04/24 01:26:16;;;;;;;9.77;5.10;;;2.30;99.90;;;;;;5063583;28;20455;-80
2021/04/24 01:28:42;;;;;;;6.77;4.70;;;2.30;99.90;;;;;;5077845;28;20427;-80
2021/04/24 01:31:08;;;;;;;6.57;4.63;;;2.40;99.90;;;;;;5067138;28;20438;-81
2021/04/24 01:33:33;;;;;;;8.93;5.07;;;2.30;99.90;;;;;;5068941;28;20204;-81
2021/04/24 01:35:59;;;;;;;10.53;5.57;;;2.30;99.90;;;;;;5067896;28;20178;-81
2021/04/24 01:38:26;;;;;;;7.23;4.87;;;2.30;99.90;;;;;;5066606;28;20197;-81
2021/04/24 01:40:52;;;;;;;7.07;4.77;;;2.20;99.90;;;;;;5067275;28;20180;-81
2021/04/24 01:43:17;;;;;;;10.50;5.07;;;2.20;99.90;;;;;;5066232;28;20408;-81
2021/04/24 01:45:43;;;;;;;8.90;5.00;;;2.30;99.90;;;;;;5065784;28;20173;-81
2021/04/24 01:48:09;;;;;;;8.73;5.27;;;2.30;99.90;;;;;;5063879;28;20186;-81
2021/04/24 01:50:43;;;;;;;7.10;4.50;;;2.20;99.90;;;;;;5060245;28;20185;-81
2021/04/24 01:53:15;;;;;;;8.10;4.30;;;2.10;99.90;;;;;;5059113;28;20461;-80
2021/04/24 01:55:42;;;;;;;10.87;5.23;;;2.10;99.90;;;;;;5059135;28;20443;-80
2021/04/24 01:58:10;;;;;;;9.20;4.67;;;2.10;99.90;;;;;;5059039;28;20424;-80
2021/04/24 02:00:45;;;;;;;8.27;4.80;;;2.00;99.90;;;;;;5058494;28;20423;-80
2021/04/24 02:03:14;;;;;;;9.03;4.37;;;2.10;99.90;;;;;;5060363;28;20779;-80
2021/04/24 02:05:40;;;;;;;6.53;4.07;;;;;;;;;;5058974;28;20764;-80
2021/04/24 02:08:13;;;;;;;8.63;4.57;;;2.00;99.90;;;;;;5059290;28;20414;-80
2021/04/24 02:10:41;;;;;;;9.27;5.23;;;1.90;99.90;;;;;;5059683;28;20424;-81
2021/04/24 02:13:11;;;;;;;8.50;4.87;;;2.10;99.90;;;;;;5059286;28;20471;-80
2021/04/24 02:15:37;;;;;;;9.30;4.43;;;1.90;99.90;;;;;;5061277;28;20404;-80
2021/04/24 02:18:04;;;;;;;5.60;4.13;;;1.80;99.90;;;;;;5062956;28;20894;-81
2021/04/24 02:20:30;;;;;;;7.33;4.77;;;1.70;99.90;;;;;;5060404;28;20442;-80
2021/04/24 02:22:56;;;;;;;7.97;4.73;;;1.60;99.90;;;;;;5061301;28;20446;-80
2021/04/24 02:25:22;;;;;;;10.10;4.50;;;1.70;99.90;;;;;;5060677;28;20423;-80
2021/04/24 02:27:48;;;;;;;7.30;4.97;;;1.80;99.90;;;;;;5059767;28;20181;-80
2021/04/24 02:30:17;;;;;;;7.53;4.50;;;1.70;99.90;;;;;;5061276;28;20197;-80
2021/04/24 02:32:44;;;;;;;7.40;4.33;;;1.70;99.90;;;;;;5061413;28;20855;-80
2021/04/24 02:35:12;;;;;;;8.87;4.53;;;1.70;99.90;;;;;;5059302;28;20518;-80
2021/04/24 02:37:38;;;;;;;8.50;4.80;;;1.70;99.90;;;;;;5060791;28;20416;-80
2021/04/24 02:40:08;;;;;;;7.30;4.50;;;1.50;99.90;;;;;;5060311;28;20447;-80
2021/04/24 02:42:35;;;;;;;7.17;4.10;;;1.60;99.90;;;;;;5059881;28;20201;-80
2021/04/24 02:45:05;;;;;;;7.43;4.43;;;1.70;99.90;;;;;;5059774;28;20424;-81
2021/04/24 02:47:32;;;;;;;8.03;5.10;;;1.70;99.90;;;;;;5061622;28;20427;-81
2021/04/24 02:49:59;;;;;;;5.67;3.90;;;1.60;99.90;;;;;;5059969;28;20949;-80
2021/04/24 02:52:24;;;;;;;6.43;4.47;;;1.60;99.90;;;;;;5059414;28;20606;-81
2021/04/24 02:54:50;;;;;;;9.00;4.27;;;1.60;99.90;;;;;;5062534;28;20419;-81
2021/04/24 02:57:16;;;;;;;8.97;5.00;;;1.60;99.90;;;;;;5063552;28;20253;-80
2021/04/24 02:59:41;;;;;;;5.93;3.87;;;1.60;99.90;;;;;;5060927;28;20204;-81
2021/04/24 03:02:07;;;;;;;10.43;3.97;;;1.60;99.90;;;;;;5064103;28;20593;-80
2021/04/24 03:04:33;;;;;;;7.73;4.53;;;1.50;99.90;;;;;;5061201;28;20177;-80
2021/04/24 03:06:58;;;;;;;9.40;4.53;;;1.60;99.90;;;;;;5063931;28;20174;-81
2021/04/24 03:09:24;;;;;;;8.63;4.07;;;1.60;99.90;;;;;;5060121;28;20209;-81
2021/04/24 03:11:50;;;;;;;6.90;4.27;;;1.50;99.90;;;;;;5061719;28;20206;-80
2021/04/24 03:14:16;;;;;;;8.87;4.50;;;1.50;99.90;;;;;;5058264;28;20216;-81
2021/04/24 03:16:42;;;;;;;6.03;4.13;;;1.50;99.90;;;;;;5060330;28;20411;-80
2021/04/24 03:19:09;;;;;;;5.23;4.30;;;1.40;99.90;;;;;;5059990;28;20196;-80
2021/04/24 03:21:34;;;;;;;6.97;3.97;;;1.40;99.90;;;;;;5058334;28;20197;-80
2021/04/24 03:24:00;;;;;;;9.30;4.13;;;1.50;99.90;;;;;;5060553;28;20411;-80
2021/04/24 03:26:26;;;;;;;6.73;4.50;;;1.30;99.90;;;;;;5057314;28;20177;-80
2021/04/24 03:28:52;;;;;;;6.77;3.87;;;1.40;99.90;;;;;;5057904;28;20202;-80
2021/04/24 03:31:18;;;;;;;5.50;4.00;;;1.20;99.90;;;;;;5056424;28;20260;-80
2021/04/24 03:33:44;;;;;;;7.10;3.90;;;1.40;99.90;;;;;;5056147;28;20412;-80
2021/04/24 03:36:11;;;;;;;6.73;4.07;;;1.30;99.90;;;;;;5053275;28;20426;-80
2021/04/24 03:38:37;;;;;;;6.37;4.17;;;1.30;99.90;;;;;;5057898;28;20190;-80
2021/04/24 03:41:04;;;;;;;6.20;3.97;;;1.30;99.90;;;;;;5069567;28;20392;-79
2021/04/24 03:43:30;;;;;;;8.50;4.10;;;1.30;99.90;;;;;;5078114;28;20416;-80
2021/04/24 03:45:56;;;;;;;7.63;3.87;;;1.40;99.90;;;;;;5077945;28;20412;-79
2021/04/24 03:48:22;;;;;;;11.97;4.30;;;1.40;99.90;;;;;;5064849;28;20462;-81
2021/04/24 03:50:47;;;;;;;13.60;4.47;;;1.50;99.90;;;;;;5060649;28;20552;-81
2021/04/24 03:53:13;;;;;;;6.23;3.80;;;1.40;99.90;;;;;;5060323;28;20228;-81
2021/04/24 03:55:39;;;;;;;11.00;4.10;;;1.40;99.90;;;;;;5060225;28;20546;-81
2021/04/24 03:58:05;;;;;;;7.60;4.60;;;1.30;99.90;;;;;;5061567;28;20709;-81
2021/04/24 04:00:31;;;;;;;8.93;4.37;;;1.40;99.90;;;;;;5062538;28;20166;-81
2021/04/24 04:03:00;;;;;;;7.63;3.57;;;1.40;99.90;;;;;;5064278;28;20181;-81
2021/04/24 04:05:36;;;;;;;9.53;4.40;;;1.40;99.90;;;;;;5063108;28;20447;-81
2021/04/24 04:08:03;;;;;;;7.70;4.30;;;1.40;99.90;;;;;;5062777;28;20411;-80
2021/04/24 04:10:29;;;;;;;12.37;5.50;;;1.40;99.90;;;;;;5063105;28;20436;-81
2021/04/24 04:12:56;;;;;;;10.60;5.40;;;1.40;99.90;;;;;;5064570;28;20451;-81
2021/04/24 04:15:24;;;;;;;6.23;4.87;;;1.40;99.90;;;;;;5063608;28;20481;-81
2021/04/24 04:18:10;;;;;;;10.37;5.73;;;1.30;99.90;;;;;;5062862;28;20415;-81
2021/04/24 04:20:46;;;;;;;9.93;5.17;;;1.30;99.90;;;;;;5063883;28;20492;-81
2021/04/24 04:23:13;;;;;;;12.47;5.70;;;1.50;99.90;;;;;;5064298;28;20400;-81
2021/04/24 04:25:43;;;;;;;13.33;7.77;;;1.20;99.90;;;;;;5062455;28;20489;-81
2021/04/24 04:28:09;;;;;;;14.90;7.33;;;1.30;99.90;;;;;;5063337;28;20447;-81
2021/04/24 04:30:36;;;;;;;13.97;7.13;;;1.30;99.90;;;;;;5064077;28;20415;-81
2021/04/24 04:33:04;;;;;;;10.80;4.70;;;1.30;99.90;;;;;;5063259;28;20479;-81
2021/04/24 04:35:30;;;;;;;9.73;4.77;;;1.30;99.90;;;;;;5062316;28;20419;-81
2021/04/24 04:37:56;;;;;;;5.13;3.60;;;1.30;99.90;;;;;;5062515;28;20951;-80
2021/04/24 04:40:22;;;;;;;11.07;6.20;;;1.30;99.90;;;;;;5061148;28;20413;-80
2021/04/24 04:42:47;;;;;;;8.10;4.20;;;1.30;99.90;;;;;;5066521;28;20170;-81
2021/04/24 04:45:15;;;;;;;19.60;8.40;;;1.50;99.90;;;;;;5067244;28;20464;-81
2021/04/24 04:47:41;;;;;;;13.70;6.30;;;1.40;99.90;;;;;;5065932;28;20182;-81
2021/04/24 04:50:11;;;;;;;18.33;8.87;;;1.50;99.90;;;;;;5065519;28;20432;-81
2021/04/24 04:52:37;;;;;;;25.97;11.10;;;1.50;99.90;;;;;;5067712;28;20216;-81
2021/04/24 04:55:07;;;;;;;16.97;8.13;;;1.50;99.90;;;;;;5066808;28;20400;-80
2021/04/24 04:57:33;;;;;;;25.20;10.70;;;1.60;99.90;;;;;;5066586;28;20247;-81
2021/04/24 04:59:59;;;;;;;16.50;6.40;;;1.60;99.90;;;;;;5065636;28;20429;-81
2021/04/24 05:02:24;;;;;;;18.13;8.00;;;1.90;99.90;;;;;;5065543;28;20426;-81
2021/04/24 05:04:50;;;;;;;16.07;8.37;;;1.90;99.90;;;;;;5067096;28;20173;-82
2021/04/24 05:07:16;;;;;;;15.70;7.07;;;1.80;99.90;;;;;;5066405;28;20174;-81
2021/04/24 05:09:41;;;;;;;11.97;7.07;;;2.00;99.90;;;;;;5066648;28;20204;-81
2021/04/24 05:12:08;;;;;;;9.43;6.00;;;2.70;99.90;;;;;;5065680;28;20235;-81
2021/04/24 05:14:35;;;;;;;7.43;5.00;;;2.20;99.90;;;;;;5066430;28;20166;-80
2021/04/24 05:17:00;;;;;;;8.47;5.47;;;2.30;99.90;;;;;;5065764;28;20446;-80
2021/04/24 05:19:26;;;;;;;9.17;5.87;;;2.40;99.90;;;;;;5067147;28;20481;-80
2021/04/24 05:21:52;;;;;;;7.77;5.20;;;2.50;99.90;;;;;;5066480;28;20678;-80
2021/04/24 05:24:18;;;;;;;9.20;5.40;;;2.50;99.90;;;;;;5065975;28;20185;-80
2021/04/24 05:26:43;;;;;;;10.57;6.43;;;2.60;99.90;;;;;;5067798;28;20173;-80
2021/04/24 05:29:09;;;;;;;10.53;6.17;;;2.60;99.90;;;;;;5063950;28;20257;-80
2021/04/24 05:31:35;;;;;;;8.20;4.90;;;2.80;99.90;;;;;;5064009;28;20192;-79
2021/04/24 05:34:00;;;;;;;9.43;4.87;;;2.90;99.90;;;;;;5068798;28;20196;-80
2021/04/24 05:36:27;;;;;;;6.80;4.13;;;3.00;99.90;;;;;;5071307;28;20212;-80
2021/04/24 05:38:53;;;;;;;7.33;4.63;;;3.10;99.90;;;;;;5066922;28;20554;-80
2021/04/24 05:41:22;;;;;;;7.17;4.90;;;3.20;99.90;;;;;;5064708;28;20487;-80
2021/04/24 05:43:58;;;;;;;9.23;4.93;;;3.30;99.90;;;;;;5065224;28;20444;-80
2021/04/24 05:46:24;;;;;;;7.30;4.83;;;3.40;99.90;;;;;;5066273;28;20403;-80
2021/04/24 05:48:50;;;;;;;8.33;5.23;;;3.50;99.90;;;;;;5064614;28;20522;-80
2021/04/24 05:51:18;;;;;;;5.97;4.03;;;3.60;99.90;;;;;;5065036;28;20447;-80
2021/04/24 05:53:46;;;;;;;6.07;3.67;;;3.80;99.90;;;;;;5065578;28;20308;-80
2021/04/24 05:56:12;;;;;;;6.40;4.00;;;3.90;99.90;;;;;;5066181;28;20480;-80
2021/04/24 05:58:38;;;;;;;8.50;4.17;;;4.10;99.90;;;;;;5066963;28;20432;-80
2021/04/24 06:01:04;;;;;;;9.00;3.73;;;4.20;99.90;;;;;;5065356;28;20423;-80
2021/04/24 06:03:29;;;;;;;5.97;4.17;;;4.40;99.90;;;;;;5064246;28;20182;-80
2021/04/24 06:05:55;;;;;;;8.37;3.93;;;4.40;99.90;;;;;;5064010;28;20177;-80
2021/04/24 06:08:21;;;;;;;7.40;3.70;;;4.50;99.90;;;;;;5066136;28;20189;-80
2021/04/24 06:10:47;;;;;;;5.60;3.73;;;4.70;99.90;;;;;;5065192;28;20200;-80
2021/04/24 06:13:13;;;;;;;6.43;4.27;;;4.80;99.90;;;;;;5064893;28;20198;-80
2021/04/24 06:15:38;;;;;;;8.13;3.70;;;5.00;99.90;;;;;;5066679;28;20169;-80
2021/04/24 06:18:04;;;;;;;7.80;3.47;;;5.10;99.90;;;;;;5066806;28;20262;-80
2021/04/24 06:20:30;;;;;;;7.50;3.97;;;5.30;99.90;;;;;;5067075;28;20185;-80
2021/04/24 06:22:56;;;;;;;9.00;4.00;;;5.40;99.90;;;;;;5067985;28;20178;-80
2021/04/24 06:25:22;;;;;;;6.13;3.67;;;5.50;99.90;;;;;;5066990;28;20538;-80
2021/04/24 06:27:49;;;;;;;8.67;3.40;;;5.60;99.90;;;;;;5063244;28;20178;-80
2021/04/24 06:30:17;;;;;;;11.00;4.17;;;5.70;99.90;;;;;;5063925;28;20448;-80
2021/04/24 06:32:43;;;;;;;4.40;3.70;;;5.80;99.90;;;;;;5064686;28;20463;-80
2021/04/24 06:35:10;;;;;;;4.63;3.43;;;5.90;99.90;;;;;;5062487;28;20454;-80
2021/04/24 06:37:37;;;;;;;6.07;3.40;;;6.00;99.90;;;;;;5061869;28;20412;-80
2021/04/24 06:40:08;;;;;;;6.03;3.37;;;6.10;99.90;;;;;;5060686;28;20428;-80
2021/04/24 06:42:34;;;;;;;5.63;3.83;;;6.10;99.90;;;;;;5060268;28;20204;-80
2021/04/24 06:45:00;;;;;;;3.67;3.37;;;6.20;99.90;;;;;;5058607;28;20416;-80
2021/04/24 06:47:26;;;;;;;6.63;3.50;;;6.30;99.90;;;;;;5059820;28;20408;-80
2021/04/24 06:49:52;;;;;;;5.03;3.70;;;6.50;99.90;;;;;;5058650;28;20444;-80
2021/04/24 06:52:18;;;;;;;4.23;3.30;;;6.60;99.90;;;;;;5057339;28;20459;-78
2021/04/24 06:54:44;;;;;;;4.77;3.20;;;6.80;99.90;;;;;;5060031;28;20515;-80
2021/04/24 06:57:10;;;;;;;4.57;2.73;;;7.00;99.90;;;;;;5059729;28;20176;-80
2021/04/24 06:59:36;;;;;;;5.20;3.20;;;7.00;99.90;;;;;;5062019;28;20432;-81
2021/04/24 07:02:02;;;;;;;4.07;3.20;;;7.10;99.90;;;;;;5066867;28;20181;-80
2021/04/24 07:04:28;;;;;;;4.30;2.93;;;7.20;99.90;;;;;;5075887;28;20182;-80
2021/04/24 07:06:54;;;;;;;4.80;3.27;;;7.50;99.90;;;;;;5076021;28;20416;-80
2021/04/24 07:09:19;;;;;;;6.17;3.13;;;7.60;99.90;;;;;;5062520;28;20194;-80
2021/04/24 07:11:45;;;;;;;7.63;3.30;;;7.80;99.90;;;;;;5060140;28;20279;-80
2021/04/24 07:14:11;;;;;;;5.27;3.30;;;8.00;99.90;;;;;;5055338;28;20560;-81
2021/04/24 07:16:36;;;;;;;7.23;2.70;;;8.30;99.90;;;;;;5062362;28;20177;-80
2021/04/24 07:19:03;;;;;;;9.53;3.00;;;8.50;99.90;;;;;;5062548;28;20193;-81
2021/04/24 07:21:29;;;;;;;4.57;2.90;;;8.80;99.90;;;;;;5064316;28;20197;-80
2021/04/24 07:23:55;;;;;;;5.80;3.03;;;9.00;99.90;;;;;;5064425;28;20601;-81
2021/04/24 07:26:21;;;;;;;6.77;2.60;;;9.20;99.90;;;;;;5063202;28;20178;-79
2021/04/24 07:28:47;;;;;;;5.50;2.43;;;9.40;99.90;;;;;;5060978;28;20200;-81
2021/04/24 07:31:16;;;;;;;2.97;2.60;;;9.70;98.60;;;;;;5061058;28;20566;-80
2021/04/24 07:33:43;;;;;;;7.00;2.60;;;10.10;96.60;;;;;;5061184;28;20205;-81
2021/04/24 07:36:09;;;;;;;6.73;2.93;;;10.50;94.60;;;;;;5061161;28;20189;-81
2021/04/24 07:38:35;;;;;;;5.53;2.73;;;11.10;92.40;;;;;;5062062;28;20210;-81
2021/04/24 07:41:01;;;;;;;7.73;2.80;;;11.90;90.00;;;;;;5060564;28;20191;-78
2021/04/24 07:43:27;;;;;;;6.67;2.70;;;12.60;82.50;;;;;;5054416;28;20617;-80
2021/04/24 07:45:52;;;;;;;4.47;2.47;;;13.70;78.20;;;;;;5060248;28;20186;-81
2021/04/24 07:48:18;;;;;;;4.83;2.70;;;14.20;71.60;;;;;;5063384;28;20221;-81
2021/04/24 07:50:45;;;;;;;8.37;3.03;;;14.60;69.50;;;;;;5063580;28;20169;-81
2021/04/24 07:53:11;;;;;;;6.90;2.73;;;14.80;65.50;;;;;;5062864;28;20209;-82
2021/04/24 07:55:37;;;;;;;4.50;2.67;;;15.20;68.10;;;;;;5064677;28;20509;-81
2021/04/24 07:58:02;;;;;;;4.73;3.10;;;16.00;65.60;;;;;;5066623;28;20174;-79
2021/04/24 08:00:28;;;;;;;6.20;3.17;;;16.80;61.50;;;;;;5061545;28;20564;-81
2021/04/24 08:02:54;;;;;;;5.30;2.97;;;17.20;59.70;;;;;;5062631;28;20183;-81
2021/04/24 08:05:19;;;;;;;3.77;2.80;;;17.30;58.10;;;;;;5060143;28;20186;-81
2021/04/24 08:07:46;;;;;;;6.07;2.97;;;17.90;55.80;;;;;;5061483;28;20207;-79
2021/04/24 08:10:12;;;;;;;5.70;3.60;;;18.50;56.80;;;;;;5059723;28;20297;-79
2021/04/24 08:12:38;;;;;;;5.73;4.00;;;19.20;54.70;;;;;;5061382;28;20197;-81
2021/04/24 08:15:08;;;;;;;6.87;3.10;;;19.50;56.30;;;;;;5060662;28;20185;-78
2021/04/24 08:17:35;;;;;;;7.70;3.67;;;19.80;55.00;;;;;;5064708;28;20168;-81
2021/04/24 08:20:02;;;;;;;8.67;4.20;;;20.00;54.30;;;;;;5065358;28;20241;-81
2021/04/24 08:22:28;;;;;;;6.60;4.00;;;19.90;53.60;;;;;;5064983;28;20178;-81
2021/04/24 08:24:53;;;;;;;5.70;3.90;;;19.80;51.50;;;;;;5066403;28;20189;-78
2021/04/24 08:27:19;;;;;;;5.67;3.80;;;19.90;53.20;;;;;;5066772;28;20284;-78
2021/04/24 08:29:45;;;;;;;7.23;3.93;;;20.10;51.40;;;;;;5066251;28;20283;-78
2021/04/24 08:32:11;;;;;;;5.23;3.50;;;20.40;51.00;;;;;;5065922;28;20201;-78
2021/04/24 08:34:36;;;;;;;5.97;3.57;;;20.80;52.60;;;;;;5066385;28;20241;-79
2021/04/24 08:37:02;;;;;;;6.97;4.30;;;21.10;48.50;;;;;;5064140;28;20205;-79
2021/04/24 08:39:28;;;;;;;5.73;4.33;;;20.70;47.00;;;;;;5065049;28;20260;-80
2021/04/24 08:41:54;;;;;;;6.13;4.00;;;20.60;47.20;;;;;;5065260;28;20173;-79
2021/04/24 08:44:20;;;;;;;6.33;4.17;;;20.30;44.70;;;;;;5064346;28;20185;-79
2021/04/24 08:46:51;;;;;;;7.03;4.30;;;19.90;43.50;;;;;;5066079;28;20719;-79
2021/04/24 08:49:21;;;;;;;8.47;4.80;;;20.00;47.80;;;;;;5066395;28;20215;-79
2021/04/24 08:51:49;;;;;;;5.47;4.20;;;20.00;44.60;;;;;;5064639;28;20189;-78
2021/04/24 08:54:15;;;;;;;8.37;4.30;;;20.40;47.40;;;;;;5064801;28;20189;-79
2021/04/24 08:56:41;;;;;;;6.93;5.33;;;20.70;47.90;;;;;;5060934;28;20184;-76
2021/04/24 08:59:07;;;;;;;9.50;4.60;;;20.90;46.60;;;;;;5056165;28;20193;-77
2021/04/24 09:01:33;;;;;;;8.30;4.43;;;21.00;46.90;;;;;;5056089;28;20170;-77
2021/04/24 09:03:59;;;;;;;7.90;4.37;;;20.60;44.90;;;;;;5054940;28;20268;-77
2021/04/24 09:06:25;;;;;;;10.13;5.07;;;20.60;45.20;;;;;;5056024;28;20182;-77
2021/04/24 09:09:04;;;;;;;8.33;4.40;;;20.60;45.60;;;;;;5056052;28;20741;-76
2021/04/24 09:11:51;;;;;;;8.53;4.70;;;20.90;46.00;;;;;;5055974;28;20180;-76
2021/04/24 09:14:20;;;;;;;7.10;4.30;;;20.40;48.00;;;;;;5054057;28;20190;-77
2021/04/24 09:16:50;;;;;;;7.50;4.97;;;19.80;46.80;;;;;;5055758;28;20566;-76
2021/04/24 09:19:32;;;;;;;9.93;4.70;;;19.80;48.40;;;;;;5054192;28;20602;-77
2021/04/24 09:22:18;;;;;;;6.40;4.80;;;19.90;50.20;;;;;;5055977;28;20522;-77
2021/04/24 09:24:47;;;;;;;6.73;4.80;;;20.10;47.20;;;;;;5055488;28;20252;-76
2021/04/24 09:27:13;;;;;;;9.07;4.67;;;19.90;47.00;;;;;;5056623;28;20184;-77
2021/04/24 09:29:39;;;;;;;7.13;4.80;;;19.70;45.30;;;;;;5054413;28;20204;-76
2021/04/24 09:32:15;;;;;;;9.67;4.87;;;19.70;44.40;;;;;;5054103;28;20201;-77
2021/04/24 09:34:41;;;;;;;8.53;4.50;;;19.60;47.30;;;;;;5055427;28;20155;-76
2021/04/24 09:37:21;;;;;;;12.53;4.50;;;19.60;45.00;;;;;;5055349;28;20181;-76
2021/04/24 09:39:50;;;;;;;7.73;4.80;;;19.40;47.20;;;;;;5055254;28;20681;-77
2021/04/24 09:42:32;;;;;;;8.47;4.77;;;19.80;46.10;;;;;;5055265;28;20180;-76
2021/04/24 09:44:58;;;;;;;9.93;4.67;;;20.00;45.40;;;;;;5055059;28;20174;-76
2021/04/24 09:47:39;;;;;;;7.53;4.57;;;20.20;43.20;;;;;;5055309;28;20178;-76
2021/04/24 09:50:16;;;;;;;8.10;5.27;;;20.30;47.00;;;;;;5055185;28;20708;-77
2021/04/24 09:52:43;;;;;;;7.50;5.57;;;20.30;47.10;;;;;;5053670;28;20202;-76
2021/04/24 09:55:14;;;;;;;7.37;5.00;;;20.10;46.70;;;;;;5053551;28;20311;-77
2021/04/24 09:57:40;;;;;;;6.97;4.93;;;20.20;46.90;;;;;;5055088;28;20558;-76
2021/04/24 10:00:14;;;;;;;8.27;4.77;;;20.30;45.20;;;;;;5055167;28;20196;-76
2021/04/24 10:02:43;;;;;;;8.30;5.47;;;20.30;47.50;;;;;;5057960;28;20680;-76
2021/04/24 10:05:26;;;;;;;11.47;5.43;;;20.20;48.20;;;;;;5067547;28;20238;-76
2021/04/24 10:07:56;;;;;;;6.73;5.00;;;20.20;47.60;;;;;;5075784;28;20260;-77
2021/04/24 10:10:40;;;;;;;8.20;5.30;;;20.60;46.30;;;;;;5073458;28;20176;-77
2021/04/24 10:13:07;;;;;;;8.37;5.47;;;20.60;45.10;;;;;;5055045;28;20198;-76
2021/04/24 10:15:42;;;;;;;10.33;5.90;;;20.80;44.10;;;;;;5054615;28;20635;-77
2021/04/24 10:18:10;;;;;;;14.70;4.83;;;20.70;48.40;;;;;;5056788;28;20223;-77
2021/04/24 10:20:37;;;;;;;7.77;5.20;;;20.80;45.70;;;;;;5056609;28;20194;-78
2021/04/24 10:23:06;;;;;;;10.30;6.03;;;20.80;44.20;;;;;;5055529;28;20183;-78
2021/04/24 10:25:32;;;;;;;7.90;5.53;;;20.60;44.60;;;;;;5056486;28;20181;-78
2021/04/24 10:27:58;;;;;;;11.53;5.73;;;20.00;44.70;;;;;;5057840;28;20245;-77
2021/04/24 10:30:25;;;;;;;16.00;7.07;;;19.80;44.90;;;;;;5057292;28;20236;-78
2021/04/24 10:32:52;;;;;;;8.70;5.80;;;19.80;48.10;;;;;;5056599;28;20544;-77
2021/04/24 10:35:18;;;;;;;10.13;5.73;;;20.20;49.70;;;;;;5059625;28;20661;-78
2021/04/24 10:37:49;;;;;;;13.17;6.10;;;20.60;46.50;;;;;;5055722;28;20182;-78
2021/04/24 10:40:15;;;;;;;15.27;5.77;;;20.90;46.00;;;;;;5054802;28;20277;-78
2021/04/24 10:42:44;;;;;;;7.70;5.50;;;20.90;45.30;;;;;;5053762;28;20260;-77
2021/04/24 10:45:11;;;;;;;10.17;5.70;;;20.90;45.30;;;;;;5055519;28;20175;-77
2021/04/24 10:47:41;;;;;;;8.60;5.87;;;21.00;46.40;;;;;;5055603;28;20172;-78
2021/04/24 10:50:13;;;;;;;7.23;5.40;;;21.20;45.70;;;;;;5053199;28;20201;-76
2021/04/24 10:52:39;;;;;;;10.47;5.70;;;21.40;44.40;;;;;;5054353;28;20175;-77
2021/04/24 10:55:15;;;;;;;8.13;5.37;;;21.30;45.10;;;;;;5053907;28;20248;-77
2021/04/24 10:57:47;;;;;;;8.83;6.03;;;21.70;43.90;;;;;;5052550;28;20664;-77
2021/04/24 11:00:14;;;;;;;9.80;5.70;;;21.60;45.20;;;;;;5052378;28;20202;-78
2021/04/24 11:02:46;;;;;;;8.03;5.90;;;21.60;45.00;;;;;;5053705;28;20235;-77
2021/04/24 11:05:26;;;;;;;8.57;5.80;;;21.60;43.80;;;;;;5052436;28;20570;-77
2021/04/24 11:08:20;;;;;;;9.20;6.40;;;21.40;45.50;;;;;;5053888;28;20196;-77
2021/04/24 11:11:05;;;;;;;9.57;5.83;;;21.30;40.80;;;;;;5054030;28;20246;-77
2021/04/24 11:13:56;;;;;;;6.40;5.23;;;20.90;41.60;;;;;;5053552;28;20172;-76
2021/04/24 11:16:24;;;;;;;8.20;5.30;;;21.30;44.60;;;;;;5052140;28;20283;-77
2021/04/24 11:18:50;;;;;;;9.30;5.73;;;22.10;44.90;;;;;;5053478;28;20197;-76
2021/04/24 11:21:26;;;;;;;9.17;5.83;;;22.10;39.80;;;;;;5053261;28;20207;-77
2021/04/24 11:24:14;;;;;;;6.63;5.27;;;21.90;44.80;;;;;;5051716;28;20199;-76
2021/04/24 11:26:40;;;;;;;9.67;5.73;;;22.20;43.00;;;;;;5053477;28;20494;-77
2021/04/24 11:29:10;;;;;;;8.70;5.83;;;22.10;42.10;;;;;;5053525;28;20188;-77
2021/04/24 11:31:53;;;;;;;7.83;6.73;;;22.50;43.20;;;;;;5053528;28;20168;-77
2021/04/24 11:34:21;;;;;;;11.27;6.23;;;23.00;42.00;;;;;;5053635;28;20182;-77
2021/04/24 11:36:47;;;;;;;8.27;5.83;;;23.20;42.80;;;;;;5052234;28;20227;-78
2021/04/24 11:39:13;;;;;;;12.87;6.43;;;23.40;43.80;;;;;;5053479;28;20586;-77
2021/04/24 11:41:44;;;;;;;9.77;5.90;;;23.50;39.90;;;;;;5054455;28;20170;-77
2021/04/24 11:44:19;;;;;;;7.47;5.60;;;23.30;39.90;;;;;;5053407;28;20165;-76
2021/04/24 11:46:46;;;;;;;8.63;6.33;;;22.90;40.30;;;;;;5053249;28;20231;-76
2021/04/24 11:49:16;;;;;;;7.37;5.57;;;23.50;41.30;;;;;;5053361;28;20754;-76
2021/04/24 11:51:48;;;;;;;8.67;6.27;;;23.60;38.50;;;;;;5056821;28;20590;-76
2021/04/24 11:54:15;;;;;;;9.93;6.47;;;24.00;37.20;;;;;;5057268;28;20617;-78
2021/04/24 11:56:46;;;;;;;8.73;6.33;;;23.80;40.20;;;;;;5057301;28;20660;-76
2021/04/24 11:59:12;;;;;;;8.43;5.70;;;23.50;39.90;;;;;;5057214;28;20275;-79
2021/04/24 12:01:38;;;;;;;6.80;5.57;;;23.20;38.60;;;;;;5056102;28;20644;-77
2021/04/24 12:04:04;;;;;;;9.43;5.90;;;23.40;38.70;;;;;;5056821;28;20170;-76
2021/04/24 12:06:37;;;;;;;9.30;6.50;;;23.80;38.60;;;;;;5057087;28;20529;-77
2021/04/24 12:09:12;;;;;;;11.47;6.80;;;23.90;39.80;;;;;;5055896;28;20193;-77
2021/04/24 12:11:38;;;;;;;11.03;5.90;;;23.90;39.70;;;;;;5057008;28;20166;-77
2021/04/24 12:14:04;;;;;;;7.50;5.83;;;24.00;39.10;;;;;;5055984;28;20175;-77
2021/04/24 12:16:40;;;;;;;7.87;6.70;;;24.20;37.40;;;;;;5058933;28;20274;-78
2021/04/24 12:19:30;;;;;;;8.70;6.20;;;24.00;37.50;;;;;;5059909;28;20201;-77
2021/04/24 12:22:20;;;;;;;10.60;6.57;;;24.20;38.90;;;;;;5059085;28;20225;-78
2021/04/24 12:25:03;;;;;;;10.30;6.50;;;24.40;40.00;;;;;;5056060;28;20189;-78
2021/04/24 12:27:28;;;;;;;8.80;6.17;;;24.50;38.20;;;;;;5059699;28;20158;-78
2021/04/24 12:29:56;;;;;;;11.33;6.37;;;24.90;37.40;;;;;;5059116;28;20192;-78
2021/04/24 12:32:25;;;;;;;13.03;6.30;;;25.40;39.40;;;;;;5059216;28;20315;-78
2021/04/24 12:34:51;;;;;;;7.60;6.23;;;25.60;38.60;;;;;;5059625;28;20647;-78
2021/04/24 12:37:20;;;;;;;8.80;6.53;;;25.50;36.00;;;;;;5060348;28;20179;-78
2021/04/24 12:39:46;;;;;;;7.77;6.40;;;25.40;36.00;;;;;;5060602;28;20201;-77
2021/04/24 12:42:13;;;;;;;8.63;5.93;;;25.30;36.50;;;;;;5058851;28;20203;-78
2021/04/24 12:44:40;;;;;;;9.43;6.60;;;25.30;35.70;;;;;;5059904;28;20217;-81
2021/04/24 12:47:06;;;;;;;7.83;5.97;;;25.20;37.40;;;;;;5058834;28;20204;-77
2021/04/24 12:49:33;;;;;;;8.67;6.00;;;25.30;37.20;;;;;;5062528;28;20222;-79
2021/04/24 12:52:07;;;;;;;6.60;5.40;;;25.50;36.60;;;;;;5051613;28;20671;-78
2021/04/24 12:54:33;;;;;;;7.20;5.70;;;25.70;37.60;;;;;;5085730;28;20174;-79